Time;durP1;ratioP1;P1;durP2;ratioP2;P2;SDS_P1;SDS_P2;PMS_P1;PMS_P2;Temp;Humidity;BMP_temperature;BMP_pressure;BME280_temperature;BME280_humidity;BME280_pressure;Samples;Min_cycle;Max_cycle;Signal;HPM_P1;HPM_P2
2022/05/19 00:02:13;;;;;;;;;;;;;;;;;;6158234;23;20215;-68
2022/05/19 00:04:39;;;;;;;;;;;;;;;;;;6160437;23;19904;-67
2022/05/19 00:07:11;;;;;;;;;;;;;;;;;;6160866;23;19906;-67
2022/05/19 00:09:37;;;;;;;;;;;;;;;;;;6185217;23;19979;-67
2022/05/19 00:12:03;;;;;;;;;;;;;;;;;;6184708;23;19900;-67
2022/05/19 00:14:29;;;;;;;;;;;;;;;;;;6158559;23;19900;-67
2022/05/19 00:16:57;;;;;;;;;;;;;;;;;;6156762;23;19900;-67
2022/05/19 00:19:23;;;;;;;;;;;;;;;;;;6183423;23;19908;-67
2022/05/19 00:21:49;;;;;;;;;;;;;;;;;;6184106;23;19900;-67
2022/05/19 00:24:15;;;;;;;;;;;;;;;;;;6184265;23;19935;-68
2022/05/19 00:26:41;;;;;;;;;;;;;;;;;;6184412;23;19915;-67
2022/05/19 00:29:07;;;;;;;;;;;;;;;;;;6183789;23;19908;-68
2022/05/19 00:31:33;;;;;;;;;;;;;;;;;;6156639;23;19906;-68
2022/05/19 00:33:59;;;;;;;;;;;;;;;;;;6184025;23;19954;-68
2022/05/19 00:36:25;;;;;;;;;;;;;;;;;;6157392;23;20333;-67
2022/05/19 00:38:51;;;;;;;;;;;;;;;;;;6157104;23;20031;-67
2022/05/19 00:41:17;;;;;;;;;;;;;;;;;;6157379;23;19991;-67
2022/05/19 00:43:42;;;;;;;;;;;;;;;;;;6183785;23;19904;-67
2022/05/19 03:39:47;;;;;;;;;;;;;;;;;;6182495;23;20139;-64
2022/05/19 03:42:13;;;;;;;;;;;;;;;;;;6181980;23;19904;-64
2022/05/19 03:44:39;;;;;;;;;;;;;;;;;;6182188;23;19942;-64
2022/05/19 03:47:08;;;;;;;;;;;;;;;;;;6181952;23;20293;-65
2022/05/19 03:49:51;;;;;;;;;;;;;;;;;;6177538;23;19972;-65
2022/05/19 03:52:17;;;;;;;;;;;;;;;;;;6181905;23;20277;-65
2022/05/19 03:54:44;;;;;;;;;;;;;;;;;;6182154;23;19904;-64
2022/05/19 03:57:12;;;;;;;;;;;;;;;;;;6153428;23;19900;-64
2022/05/19 03:59:38;;;;;;;;;;;;;;;;;;6181347;23;19900;-65
2022/05/19 04:02:04;;;;;;;;;;;;;;;;;;6180926;23;19901;-65
2022/05/19 04:04:30;;;;;;;;;;;;;;;;;;6181375;23;19904;-64
2022/05/19 04:06:56;;;;;;;;;;;;;;;;;;6181736;23;19979;-65
2022/05/19 04:09:22;;;;;;;;;;;;;;;;;;6181316;23;20358;-64
2022/05/19 04:11:48;;;;;;;;;;;;;;;;;;6180945;23;19975;-65
2022/05/19 04:14:16;;;;;;;;;;;;;;;;;;6181403;23;20307;-65
2022/05/19 04:16:42;;;;;;;;;;;;;;;;;;6181672;23;19900;-64
2022/05/19 04:19:08;;;;;;;;;;;;;;;;;;6181206;23;19988;-65
2022/05/19 04:21:34;;;;;;;;;;;;;;;;;;6181791;23;19924;-65
2022/05/19 04:24:00;;;;;;;;;;;;;;;;;;6182130;23;19959;-66
2022/05/19 04:26:26;;;;;;;;;;;;;;;;;;6181856;23;19904;-65
2022/05/19 04:28:52;;;;;;;;;;;;;;;;;;6180814;23;19907;-65
2022/05/19 04:31:18;;;;;;;;;;;;;;;;;;6181362;23;19900;-65
2022/05/19 04:33:44;;;;;;;;;;;;;;;;;;6181459;23;19908;-65
2022/05/19 04:36:16;;;;;;;;;;;;;;;;;;6181246;23;19908;-65
2022/05/19 05:03:42;;;;;;;;;;;;;;;;;;6154540;23;19946;-65
2022/05/19 09:25:58;;;;;;;;;;;;;;;;;;6184786;23;19963;-63
2022/05/19 09:28:24;;;;;;;;;;;;;;;;;;6182509;23;20341;-62
2022/05/19 09:30:50;;;;;;;;;;;;;;;;;;6156414;23;19900;-62
2022/05/19 09:33:16;;;;;;;;;;;;;;;;;;6156000;23;19901;-63
2022/05/19 09:35:43;;;;;;;;;;;;;;;;;;6182983;23;19900;-63
2022/05/19 09:38:13;;;;;;;;;;;;;;;;;;6155016;23;19901;-63
2022/05/19 09:40:39;;;;;;;;;;;;;;;;;;6183210;23;20319;-63
2022/05/19 09:43:06;;;;;;;;;;;;;;;;;;6156991;23;19901;-63
2022/05/19 09:45:32;;;;;;;;;;;;;;;;;;6182150;23;19900;-63
2022/05/19 09:47:58;;;;;;;;;;;;;;;;;;6155092;23;19990;-63
2022/05/19 09:50:24;;;;;;;;;;;;;;;;;;6182789;23;20315;-63
2022/05/19 09:52:49;;;;;;;;;;;;;;;;;;6183129;23;20334;-62
2022/05/19 09:55:15;;;;;;;;;;;;;;;;;;6183111;23;19901;-62
2022/05/19 09:57:42;;;;;;;;;;;;;;;;;;6154981;23;19904;-63
2022/05/19 10:00:07;;;;;;;;;;;;;;;;;;6182497;23;19900;-63
2022/05/19 10:02:33;;;;;;;;;;;;;;;;;;6182970;23;19904;-63
2022/05/19 10:04:59;;;;;;;;;;;;;;;;;;6183156;23;19900;-63
2022/05/19 10:07:25;;;;;;;;;;;;;;;;;;6182259;23;19900;-63
2022/05/19 10:09:51;;;;;;;;;;;;;;;;;;6181592;23;20231;-64
2022/05/19 10:12:18;;;;;;;;;;;;;;;;;;6182831;23;19932;-63
2022/05/19 10:14:44;;;;;;;;;;;;;;;;;;6156287;23;20376;-63
2022/05/19 10:17:10;;;;;;;;;;;;;;;;;;6182455;23;19904;-63
2022/05/19 10:19:36;;;;;;;;;;;;;;;;;;6155484;23;19986;-63
2022/05/19 10:22:02;;;;;;;;;;;;;;;;;;6182490;23;20354;-64
2022/05/19 10:24:28;;;;;;;;;;;;;;;;;;6156130;23;19900;-63
2022/05/19 10:31:02;;;;;;;;;;;;;;;;;;6182550;23;20311;-63
2022/05/19 10:32:24;;;;;;;;;;;;;;;;;;6182544;23;19923;-63
2022/05/19 10:34:50;;;;;;;;;;;;;;;;;;6181289;23;20310;-63
2022/05/19 10:37:16;;;;;;;;;;;;;;;;;;6181809;23;19900;-63
2022/05/19 10:39:51;;;;;;;;;;;;;;;;;;6181337;23;19904;-63
2022/05/19 10:42:17;;;;;;;;;;;;;;;;;;6182108;23;19983;-63
2022/05/19 10:44:43;;;;;;;;;;;;;;;;;;6182735;23;19958;-63
2022/05/19 10:47:09;;;;;;;;;;;;;;;;;;6181820;23;19904;-63
2022/05/19 10:49:35;;;;;;;;;;;;;;;;;;6181608;23;19915;-63
2022/05/19 10:52:01;;;;;;;;;;;;;;;;;;6182214;23;19939;-63
2022/05/19 10:54:27;;;;;;;;;;;;;;;;;;6155369;23;19900;-63
2022/05/19 10:56:53;;;;;;;;;;;;;;;;;;6182045;23;19958;-63
2022/05/19 10:59:19;;;;;;;;;;;;;;;;;;6181566;23;20221;-63
2022/05/19 11:01:47;;;;;;;;;;;;;;;;;;6182203;23;20345;-63
2022/05/19 11:04:14;;;;;;;;;;;;;;;;;;6155950;23;19951;-63
2022/05/19 11:06:40;;;;;;;;;;;;;;;;;;6155464;23;19979;-63
2022/05/19 11:09:06;;;;;;;;;;;;;;;;;;6153583;23;20381;-63
2022/05/19 11:11:32;;;;;;;;;;;;;;;;;;6181400;23;19904;-63
2022/05/19 11:13:58;;;;;;;;;;;;;;;;;;6182528;23;20015;-63
2022/05/19 11:16:24;;;;;;;;;;;;;;;;;;6182029;23;20233;-63
2022/05/19 11:18:50;;;;;;;;;;;;;;;;;;6181853;23;19907;-63
2022/05/19 11:21:16;;;;;;;;;;;;;;;;;;6181804;23;19908;-63
2022/05/19 11:23:42;;;;;;;;;;;;;;;;;;6181141;23;19900;-63
2022/05/19 11:26:23;;;;;;;;;;;;;;;;;;6155270;23;19907;-63
2022/05/19 11:28:49;;;;;;;;;;;;;;;;;;6181939;23;19940;-63
2022/05/19 11:31:15;;;;;;;;;;;;;;;;;;6182077;23;19900;-63
2022/05/19 11:33:41;;;;;;;;;;;;;;;;;;6155882;23;19904;-62
2022/05/19 11:36:07;;;;;;;;;;;;;;;;;;6181697;23;19928;-64
2022/05/19 11:38:33;;;;;;;;;;;;;;;;;;6180957;23;19900;-63
2022/05/19 11:40:58;;;;;;;;;;;;;;;;;;6182293;23;19900;-63
2022/05/19 11:43:24;;;;;;;;;;;;;;;;;;6180904;23;20262;-63
2022/05/19 11:45:50;;;;;;;;;;;;;;;;;;6181883;23;19979;-63
2022/05/19 11:56:30;;;;;;;;;;;;;;;;;;6181825;23;19923;-63
2022/05/19 11:58:57;;;;;;;;;;;;;;;;;;6181737;23;20311;-63
2022/05/19 12:01:23;;;;;;;;;;;;;;;;;;6181912;23;19904;-63
2022/05/19 12:03:49;;;;;;;;;;;;;;;;;;6155981;23;19935;-63
2022/05/19 12:06:17;;;;;;;;;;;;;;;;;;6181698;23;19900;-63
2022/05/19 12:08:43;;;;;;;;;;;;;;;;;;6180624;23;19917;-62
2022/05/19 12:11:09;;;;;;;;;;;;;;;;;;6181951;23;19900;-63
2022/05/19 12:13:35;;;;;;;;;;;;;;;;;;6181590;23;19907;-63
2022/05/19 12:16:01;;;;;;;;;;;;;;;;;;6181810;23;19935;-63
2022/05/19 12:18:27;;;;;;;;;;;;;;;;;;6179845;23;19935;-63
2022/05/19 12:20:53;;;;;;;;;;;;;;;;;;6155265;23;19900;-62
2022/05/19 12:23:19;;;;;;;;;;;;;;;;;;6154666;23;19904;-63
2022/05/19 12:25:45;;;;;;;;;;;;;;;;;;6182016;23;19986;-63
2022/05/19 12:28:11;;;;;;;;;;;;;;;;;;6180585;23;20474;-63
2022/05/19 12:33:21;;;;;;;;;;;;;;;;;;6181439;23;20260;-63
2022/05/19 12:35:47;;;;;;;;;;;;;;;;;;6156193;23;20158;-62
2022/05/19 12:38:13;;;;;;;;;;;;;;;;;;6180300;23;19987;-62
2022/05/19 12:40:39;;;;;;;;;;;;;;;;;;6155327;23;20332;-63
2022/05/19 12:43:05;;;;;;;;;;;;;;;;;;6154987;23;19908;-62
2022/05/19 12:45:32;;;;;;;;;;;;;;;;;;6155549;23;19904;-62
2022/05/19 12:47:58;;;;;;;;;;;;;;;;;;6181606;23;20235;-62
2022/05/19 12:50:25;;;;;;;;;;;;;;;;;;6155009;23;20155;-62
2022/05/19 12:52:51;;;;;;;;;;;;;;;;;;6154102;23;19943;-63
2022/05/19 12:55:17;;;;;;;;;;;;;;;;;;6154223;23;20231;-63
2022/05/19 12:57:43;;;;;;;;;;;;;;;;;;6182169;23;19971;-62
2022/05/19 13:00:09;;;;;;;;;;;;;;;;;;6181084;23;19931;-63
2022/05/19 13:02:35;;;;;;;;;;;;;;;;;;6181692;23;19904;-63
2022/05/19 13:05:01;;;;;;;;;;;;;;;;;;6182181;23;19995;-62
2022/05/19 13:07:28;;;;;;;;;;;;;;;;;;6183633;23;19979;-62
2022/05/19 13:09:54;;;;;;;;;;;;;;;;;;6181545;23;19912;-62
2022/05/19 13:12:19;;;;;;;;;;;;;;;;;;6183174;23;20404;-62
2022/05/19 13:14:47;;;;;;;;;;;;;;;;;;6183314;23;19907;-62
2022/05/19 13:17:13;;;;;;;;;;;;;;;;;;6183417;23;19900;-63
2022/05/19 13:19:39;;;;;;;;;;;;;;;;;;6182767;23;20398;-62
2022/05/19 13:22:06;;;;;;;;;;;;;;;;;;6183266;23;19900;-62
2022/05/19 13:24:32;;;;;;;;;;;;;;;;;;6155463;23;19935;-62
2022/05/19 13:32:33;;;;;;;;;;;;;;;;;;6183244;23;19907;-62
2022/05/19 13:34:59;;;;;;;;;;;;;;;;;;6155739;23;19923;-62
2022/05/19 13:37:25;;;;;;;;;;;;;;;;;;6182928;23;19962;-62
2022/05/19 13:39:51;;;;;;;;;;;;;;;;;;6182080;23;19951;-62
2022/05/19 13:42:17;;;;;;;;;;;;;;;;;;6183114;23;19939;-62
2022/05/19 13:44:43;;;;;;;;;;;;;;;;;;6156520;23;20289;-62
2022/05/19 13:47:09;;;;;;;;;;;;;;;;;;6182790;23;19900;-63
2022/05/19 13:49:35;;;;;;;;;;;;;;;;;;6181989;23;20047;-62
2022/05/19 13:52:01;;;;;;;;;;;;;;;;;;6182967;23;20230;-62
2022/05/19 13:54:27;;;;;;;;;;;;;;;;;;6182269;23;19906;-62
2022/05/19 13:56:53;;;;;;;;;;;;;;;;;;6183519;23;19900;-62
2022/05/19 13:59:19;;;;;;;;;;;;;;;;;;6182082;23;20327;-63
2022/05/19 14:01:45;;;;;;;;;;;;;;;;;;6182186;23;19900;-62
2022/05/19 14:04:11;;;;;;;;;;;;;;;;;;6156169;23;20235;-63
2022/05/19 14:06:37;;;;;;;;;;;;;;;;;;6182923;23;19900;-62
2022/05/19 14:09:03;;;;;;;;;;;;;;;;;;6181414;23;19908;-63
2022/05/19 14:11:29;;;;;;;;;;;;;;;;;;6156457;23;19900;-62
2022/05/19 14:13:55;;;;;;;;;;;;;;;;;;6182928;23;20329;-62
2022/05/19 14:16:21;;;;;;;;;;;;;;;;;;6182613;23;19915;-62
2022/05/19 14:18:47;;;;;;;;;;;;;;;;;;6181279;23;19900;-62
2022/05/19 14:21:13;;;;;;;;;;;;;;;;;;6182757;23;19900;-62
2022/05/19 14:23:39;;;;;;;;;;;;;;;;;;6182979;23;20226;-62
2022/05/19 14:26:05;;;;;;;;;;;;;;;;;;6182055;23;19900;-62
2022/05/19 14:28:31;;;;;;;;;;;;;;;;;;6181816;23;19907;-62
2022/05/19 14:30:56;;;;;;;;;;;;;;;;;;6156052;23;19907;-62
2022/05/19 14:33:22;;;;;;;;;;;;;;;;;;6182505;23;19904;-62
2022/05/19 14:35:48;;;;;;;;;;;;;;;;;;6181181;23;19900;-62
2022/05/19 14:38:14;;;;;;;;;;;;;;;;;;6182169;23;19904;-62
2022/05/19 14:43:25;;;;;;;;;;;;;;;;;;6182410;23;19907;-62
2022/05/19 14:45:51;;;;;;;;;;;;;;;;;;6182241;23;19900;-62
2022/05/19 14:48:17;;;;;;;;;;;;;;;;;;6182087;23;19930;-62
2022/05/19 14:50:43;;;;;;;;;;;;;;;;;;6182577;23;19908;-62
2022/05/19 14:53:09;;;;;;;;;;;;;;;;;;6182413;23;19916;-62
2022/05/19 14:55:35;;;;;;;;;;;;;;;;;;6181858;23;19901;-62
2022/05/19 14:58:01;;;;;;;;;;;;;;;;;;6181747;23;19935;-62
2022/05/19 15:00:27;;;;;;;;;;;;;;;;;;6182026;23;20605;-62
2022/05/19 15:02:53;;;;;;;;;;;;;;;;;;6181990;23;20329;-62
2022/05/19 15:05:19;;;;;;;;;;;;;;;;;;6182420;23;19900;-62
2022/05/19 15:07:45;;;;;;;;;;;;;;;;;;6182756;23;19907;-62
2022/05/19 15:10:11;;;;;;;;;;;;;;;;;;6180573;23;19912;-62
2022/05/19 15:12:37;;;;;;;;;;;;;;;;;;6184789;23;20307;-62
2022/05/19 15:15:03;;;;;;;;;;;;;;;;;;6184488;23;19983;-62
2022/05/19 15:17:29;;;;;;;;;;;;;;;;;;6184299;23;19900;-62
2022/05/19 15:19:54;;;;;;;;;;;;;;;;;;6154981;23;19907;-62
2022/05/19 15:22:20;;;;;;;;;;;;;;;;;;6155892;23;19904;-62
2022/05/19 15:24:53;;;;;;;;;;;;;;;;;;6181657;23;20246;-62
2022/05/19 15:27:18;;;;;;;;;;;;;;;;;;6181476;23;19912;-62
2022/05/19 15:29:44;;;;;;;;;;;;;;;;;;6180881;23;19912;-62
2022/05/19 15:32:10;;;;;;;;;;;;;;;;;;6182420;23;19900;-62
2022/05/19 15:34:36;;;;;;;;;;;;;;;;;;6155219;23;19936;-62
2022/05/19 15:37:02;;;;;;;;;;;;;;;;;;6181917;23;20345;-62
2022/05/19 15:39:28;;;;;;;;;;;;;;;;;;6181278;23;20330;-62
2022/05/19 15:41:54;;;;;;;;;;;;;;;;;;6181336;23;19900;-62
2022/05/19 15:44:21;;;;;;;;;;;;;;;;;;6180672;23;20357;-62
2022/05/19 15:46:47;;;;;;;;;;;;;;;;;;6182025;23;19901;-62
2022/05/19 15:49:13;;;;;;;;;;;;;;;;;;6181048;23;19912;-62
2022/05/19 15:51:38;;;;;;;;;;;;;;;;;;6182133;23;19983;-62
2022/05/19 15:54:04;;;;;;;;;;;;;;;;;;6181432;23;20311;-62
2022/05/19 15:56:32;;;;;;;;;;;;;;;;;;6153571;23;19900;-61
2022/05/19 15:58:58;;;;;;;;;;;;;;;;;;6181378;23;20346;-61
2022/05/19 16:01:24;;;;;;;;;;;;;;;;;;6182427;23;19900;-61
2022/05/19 16:03:49;;;;;;;;;;;;;;;;;;6182147;23;20362;-61
2022/05/19 16:06:15;;;;;;;;;;;;;;;;;;6181830;23;19904;-62
2022/05/19 16:08:41;;;;;;;;;;;;;;;;;;6181634;23;20380;-62
2022/05/19 16:11:10;;;;;;;;;;;;;;;;;;6180461;23;19908;-63
2022/05/19 16:13:36;;;;;;;;;;;;;;;;;;6154440;23;20317;-63
2022/05/19 16:16:01;;;;;;;;;;;;;;;;;;6182197;23;19904;-62
2022/05/19 16:18:27;;;;;;;;;;;;;;;;;;6181801;23;19900;-63
2022/05/19 16:20:53;;;;;;;;;;;;;;;;;;6155635;23;19900;-63
2022/05/19 16:23:19;;;;;;;;;;;;;;;;;;6182403;23;19971;-63
2022/05/19 16:25:46;;;;;;;;;;;;;;;;;;6180941;23;19911;-63
2022/05/19 16:28:12;;;;;;;;;;;;;;;;;;6180822;23;19958;-63
2022/05/19 16:30:37;;;;;;;;;;;;;;;;;;6181348;23;20226;-63
2022/05/19 16:33:03;;;;;;;;;;;;;;;;;;6181945;23;19994;-63
2022/05/19 16:35:30;;;;;;;;;;;;;;;;;;6181743;23;19955;-63
2022/05/19 16:37:56;;;;;;;;;;;;;;;;;;6181131;23;19932;-64
2022/05/19 16:40:22;;;;;;;;;;;;;;;;;;6179983;23;19999;-64
2022/05/19 16:42:48;;;;;;;;;;;;;;;;;;6184166;23;19907;-63
2022/05/19 16:45:14;;;;;;;;;;;;;;;;;;6182922;23;20226;-64
2022/05/19 16:47:40;;;;;;;;;;;;;;;;;;6182742;23;19954;-63
2022/05/19 16:50:06;;;;;;;;;;;;;;;;;;6182714;23;19908;-63
2022/05/19 16:52:32;;;;;;;;;;;;;;;;;;6183241;23;19907;-63
2022/05/19 16:57:48;;;;;;;;;;;;;;;;;;6183156;23;20341;-63
2022/05/19 17:00:14;;;;;;;;;;;;;;;;;;6182876;23;20333;-64
2022/05/19 17:02:40;;;;;;;;;;;;;;;;;;6182630;23;19900;-63
2022/05/19 17:05:06;;;;;;;;;;;;;;;;;;6183255;23;19900;-63
2022/05/19 17:07:32;;;;;;;;;;;;;;;;;;6182599;23;20219;-63
2022/05/19 17:09:58;;;;;;;;;;;;;;;;;;6182478;23;19950;-63
2022/05/19 17:12:26;;;;;;;;;;;;;;;;;;6182340;23;20238;-63
2022/05/19 17:14:52;;;;;;;;;;;;;;;;;;6182929;23;19904;-63
2022/05/19 17:17:21;;;;;;;;;;;;;;;;;;6183164;23;19900;-63
2022/05/19 17:19:47;;;;;;;;;;;;;;;;;;6182048;23;19900;-63
2022/05/19 17:22:15;;;;;;;;;;;;;;;;;;6181811;23;19959;-63
2022/05/19 17:24:41;;;;;;;;;;;;;;;;;;6183328;23;19907;-63
2022/05/19 17:27:07;;;;;;;;;;;;;;;;;;6156065;23;19959;-64
2022/05/19 17:29:33;;;;;;;;;;;;;;;;;;6181355;23;20290;-63
2022/05/19 17:31:59;;;;;;;;;;;;;;;;;;6183335;23;19900;-63
2022/05/19 17:34:25;;;;;;;;;;;;;;;;;;6182554;23;19938;-63
2022/05/19 17:36:51;;;;;;;;;;;;;;;;;;6182694;23;19904;-63
2022/05/19 17:39:17;;;;;;;;;;;;;;;;;;6182530;23;19907;-63
2022/05/19 17:41:43;;;;;;;;;;;;;;;;;;6182489;23;19904;-63
2022/05/19 17:44:09;;;;;;;;;;;;;;;;;;6182078;23;19959;-63
2022/05/19 17:46:37;;;;;;;;;;;;;;;;;;6182082;23;19901;-63
2022/05/19 17:49:04;;;;;;;;;;;;;;;;;;6181794;23;19935;-63
2022/05/19 17:51:30;;;;;;;;;;;;;;;;;;6182147;23;19908;-63
2022/05/19 17:53:56;;;;;;;;;;;;;;;;;;6182746;23;19901;-63
2022/05/19 17:56:22;;;;;;;;;;;;;;;;;;6181458;23;20680;-63
2022/05/19 17:58:48;;;;;;;;;;;;;;;;;;6182122;23;20230;-63
2022/05/19 18:01:14;;;;;;;;;;;;;;;;;;6181461;23;19900;-63
2022/05/19 18:03:40;;;;;;;;;;;;;;;;;;6181815;23;19900;-63
2022/05/19 18:06:06;;;;;;;;;;;;;;;;;;6181794;23;20280;-63
2022/05/19 18:08:32;;;;;;;;;;;;;;;;;;6181823;23;19905;-63
2022/05/19 18:10:58;;;;;;;;;;;;;;;;;;6181898;23;19905;-64
2022/05/19 18:13:24;;;;;;;;;;;;;;;;;;6182239;23;19955;-63
2022/05/19 18:18:34;;;;;;;;;;;;;;;;;;6181996;23;19911;-64
2022/05/19 18:21:00;;;;;;;;;;;;;;;;;;6156166;23;19980;-63
2022/05/19 18:23:26;;;;;;;;;;;;;;;;;;6182305;23;19912;-63
2022/05/19 18:25:52;;;;;;;;;;;;;;;;;;6182049;23;19904;-63
2022/05/19 18:28:18;;;;;;;;;;;;;;;;;;6179004;23;19922;-64
2022/05/19 18:30:44;;;;;;;;;;;;;;;;;;6179961;23;19912;-63
2022/05/19 18:33:10;;;;;;;;;;;;;;;;;;6182870;23;20306;-63
2022/05/19 18:35:36;;;;;;;;;;;;;;;;;;6182834;23;19900;-63
2022/05/19 18:38:02;;;;;;;;;;;;;;;;;;6180023;23;19970;-63
2022/05/19 18:45:58;;;;;;;;;;;;;;;;;;6182325;23;19943;-63
2022/05/19 18:48:23;;;;;;;;;;;;;;;;;;6181382;23;19901;-63
2022/05/19 18:50:49;;;;;;;;;;;;;;;;;;6182021;23;19931;-63
2022/05/19 18:53:15;;;;;;;;;;;;;;;;;;6182240;23;19987;-63
2022/05/19 18:55:41;;;;;;;;;;;;;;;;;;6181533;23;20348;-64
2022/05/19 18:58:07;;;;;;;;;;;;;;;;;;6181029;23;19904;-63
2022/05/19 19:00:33;;;;;;;;;;;;;;;;;;6180874;23;20468;-63
2022/05/19 19:02:59;;;;;;;;;;;;;;;;;;6181605;23;19954;-63
2022/05/19 19:05:25;;;;;;;;;;;;;;;;;;6181183;23;19900;-63
2022/05/19 19:07:51;;;;;;;;;;;;;;;;;;6181322;23;20303;-63
2022/05/19 19:10:17;;;;;;;;;;;;;;;;;;6179738;23;19962;-63
2022/05/19 19:12:43;;;;;;;;;;;;;;;;;;6179997;23;20250;-63
2022/05/19 19:15:09;;;;;;;;;;;;;;;;;;6180275;23;19901;-64
2022/05/19 19:17:35;;;;;;;;;;;;;;;;;;6180768;23;19919;-63
2022/05/19 19:20:01;;;;;;;;;;;;;;;;;;6180338;23;20333;-63
2022/05/19 19:22:26;;;;;;;;;;;;;;;;;;6180224;23;19975;-63
2022/05/19 19:24:52;;;;;;;;;;;;;;;;;;6180427;23;19900;-63
2022/05/19 19:27:18;;;;;;;;;;;;;;;;;;6179365;23;20229;-63
2022/05/19 19:29:45;;;;;;;;;;;;;;;;;;6179726;23;19916;-63
2022/05/19 19:32:11;;;;;;;;;;;;;;;;;;6180187;23;19901;-63
2022/05/19 19:34:37;;;;;;;;;;;;;;;;;;6180556;23;20212;-63
2022/05/19 19:37:03;;;;;;;;;;;;;;;;;;6180373;23;20269;-63
2022/05/19 19:39:29;;;;;;;;;;;;;;;;;;6179296;23;20359;-63
2022/05/19 19:41:55;;;;;;;;;;;;;;;;;;6180019;23;19903;-64
2022/05/19 19:44:21;;;;;;;;;;;;;;;;;;6180608;23;19904;-64
2022/05/19 19:46:47;;;;;;;;;;;;;;;;;;6180295;23;19900;-63
2022/05/19 19:49:13;;;;;;;;;;;;;;;;;;6179800;23;19948;-64
2022/05/19 19:51:54;;;;;;;;;;;;;;;;;;6180607;23;19935;-63
2022/05/19 19:54:20;;;;;;;;;;;;;;;;;;6180470;23;19926;-63
2022/05/19 19:56:45;;;;;;;;;;;;;;;;;;6180499;23;20326;-63
2022/05/19 19:59:17;;;;;;;;;;;;;;;;;;6178986;23;20089;-64
2022/05/19 20:01:43;;;;;;;;;;;;;;;;;;6180419;23;19900;-64
2022/05/19 20:04:09;;;;;;;;;;;;;;;;;;6180101;23;19907;-64
2022/05/19 20:06:35;;;;;;;;;;;;;;;;;;6180021;23;20306;-63
2022/05/19 20:09:01;;;;;;;;;;;;;;;;;;6179930;23;19912;-63
2022/05/19 20:11:29;;;;;;;;;;;;;;;;;;6179717;23;19904;-63
2022/05/19 20:13:55;;;;;;;;;;;;;;;;;;6179887;23;19904;-63
2022/05/19 20:16:24;;;;;;;;;;;;;;;;;;6180495;23;20189;-63
2022/05/19 20:18:53;;;;;;;;;;;;;;;;;;6178364;23;19904;-63
2022/05/19 20:21:19;;;;;;;;;;;;;;;;;;6181063;23;19979;-63
2022/05/19 20:23:44;;;;;;;;;;;;;;;;;;6182285;23;19973;-63
2022/05/19 20:26:11;;;;;;;;;;;;;;;;;;6155194;23;20327;-64
2022/05/19 20:28:37;;;;;;;;;;;;;;;;;;6154528;23;20319;-63
2022/05/19 20:31:03;;;;;;;;;;;;;;;;;;6182309;23;19904;-63
2022/05/19 20:33:29;;;;;;;;;;;;;;;;;;6183274;23;19907;-63
2022/05/19 20:35:55;;;;;;;;;;;;;;;;;;6182384;23;20208;-63
2022/05/19 20:38:22;;;;;;;;;;;;;;;;;;6181211;23;19904;-63
2022/05/19 20:40:48;;;;;;;;;;;;;;;;;;6182556;23;19901;-63
2022/05/19 20:43:14;;;;;;;;;;;;;;;;;;6181608;23;20344;-63
2022/05/19 20:45:40;;;;;;;;;;;;;;;;;;6182972;23;19901;-63
2022/05/19 20:48:06;;;;;;;;;;;;;;;;;;6181840;23;19904;-63
2022/05/19 20:50:32;;;;;;;;;;;;;;;;;;6182293;23;20366;-63
2022/05/19 20:52:58;;;;;;;;;;;;;;;;;;6181640;23;19904;-63
2022/05/19 20:55:23;;;;;;;;;;;;;;;;;;6182533;23;19923;-63
2022/05/19 20:57:49;;;;;;;;;;;;;;;;;;6181649;23;19931;-64
2022/05/19 21:00:15;;;;;;;;;;;;;;;;;;6155445;23;19983;-64
2022/05/19 21:02:41;;;;;;;;;;;;;;;;;;6181825;23;20162;-63
2022/05/19 21:05:07;;;;;;;;;;;;;;;;;;6182173;23;19904;-64
2022/05/19 21:07:33;;;;;;;;;;;;;;;;;;6156120;23;20027;-63
2022/05/19 21:09:59;;;;;;;;;;;;;;;;;;6181108;23;20332;-63
2022/05/19 21:12:25;;;;;;;;;;;;;;;;;;6182049;23;19943;-63
2022/05/19 21:14:51;;;;;;;;;;;;;;;;;;6181829;23;19900;-63
2022/05/19 21:17:17;;;;;;;;;;;;;;;;;;6155609;23;19904;-63
2022/05/19 21:19:43;;;;;;;;;;;;;;;;;;6180873;23;20242;-64
2022/05/19 21:22:09;;;;;;;;;;;;;;;;;;6155621;23;19932;-64
2022/05/19 21:27:19;;;;;;;;;;;;;;;;;;6180666;23;20473;-64
2022/05/19 21:29:45;;;;;;;;;;;;;;;;;;6180579;23;20318;-63
2022/05/19 21:32:11;;;;;;;;;;;;;;;;;;6181784;23;19999;-64
2022/05/19 21:34:37;;;;;;;;;;;;;;;;;;6182652;23;19912;-64
2022/05/19 21:37:03;;;;;;;;;;;;;;;;;;6155562;23;19911;-63
2022/05/19 21:39:30;;;;;;;;;;;;;;;;;;6154430;23;19955;-63
2022/05/19 21:41:56;;;;;;;;;;;;;;;;;;6155757;23;19954;-64
2022/05/19 21:44:22;;;;;;;;;;;;;;;;;;6181659;23;19987;-64
2022/05/19 21:46:47;;;;;;;;;;;;;;;;;;6182426;23;19904;-64
2022/05/19 21:49:13;;;;;;;;;;;;;;;;;;6155312;23;19948;-64
2022/05/19 21:57:08;;;;;;;;;;;;;;;;;;6182402;23;19910;-64
2022/05/19 21:59:34;;;;;;;;;;;;;;;;;;6154530;23;19974;-63
2022/05/19 22:02:00;;;;;;;;;;;;;;;;;;6181975;23;19987;-63
2022/05/19 22:04:26;;;;;;;;;;;;;;;;;;6181840;23;19967;-64
2022/05/19 22:09:36;;;;;;;;;;;;;;;;;;6180380;23;19939;-63
2022/05/19 22:12:02;;;;;;;;;;;;;;;;;;6182326;23;20315;-64
2022/05/19 22:14:28;;;;;;;;;;;;;;;;;;6184834;23;19900;-63
2022/05/19 22:16:54;;;;;;;;;;;;;;;;;;6160247;23;19900;-63
2022/05/19 22:19:20;;;;;;;;;;;;;;;;;;6186374;23;19900;-64
2022/05/19 22:21:52;;;;;;;;;;;;;;;;;;6160103;23;19900;-64
2022/05/19 22:24:18;;;;;;;;;;;;;;;;;;6185821;23;19900;-64
2022/05/19 22:29:34;;;;;;;;;;;;;;;;;;6184738;23;19919;-63
2022/05/19 22:35:21;;;;;;;;;;;;;;;;;;6126057;23;20362;-64
